Time;durP1;ratioP1;P1;durP2;ratioP2;P2;SDS_P1;SDS_P2;PMS_P1;PMS_P2;Temp;Humidity;BMP_temperature;BMP_pressure;BME280_temperature;BME280_humidity;BME280_pressure;Samples;Min_cycle;Max_cycle;Signal;HPM_P1;HPM_P2
2023/01/01 00:00:27;;;;;;;;;;;;;;;;;;1045750;28;2809;-56
2023/01/01 00:01:17;;;;;;;;;;;;;;;;;;1044183;28;5232;-56
2023/01/01 00:02:00;;;;;;;;;;;;;;;;;;1044851;28;4082;-58
2023/01/01 00:02:31;;;;;;;;;;;;;;;;;;1044568;28;2877;-58
2023/01/01 00:03:01;;;;;;;;;;;;;;;;;;1050425;28;3928;-56
2023/01/01 00:03:32;;;;;;;;;;;;;;;;;;1047757;28;3993;-59
2023/01/01 00:04:02;;;;;;;;;;;;;;;;;;1043567;28;3996;-58
2023/01/01 00:04:33;;;;;;;;;;;;;;;;;;1046585;28;2167;-55
2023/01/01 00:05:04;;;;;;;;;;;;;;;;;;1042297;28;4455;-57
2023/01/01 00:05:37;;;;;;;;;;;;;;;;;;1044973;28;2949;-57
2023/01/01 00:06:08;;;;;;;;;;;;;;;;;;1047553;28;4009;-57
2023/01/01 00:06:38;;;;;;;;;;;;;;;;;;1050822;28;2960;-57
2023/01/01 00:07:08;;;;;;;;;;;;;;;;;;1048879;28;3914;-55
2023/01/01 00:07:39;;;;;;;;;;;;;;;;;;1049850;28;2450;-54
2023/01/01 00:08:09;;;;;;;;;;;;;;;;;;1048419;28;3784;-56
2023/01/01 00:08:45;;;;;;;;;;;;;;;;;;1048148;28;3802;-59
2023/01/01 00:10:53;;;;;;;;;;;;;;;;;;1049070;28;4023;-59
2023/01/01 00:11:24;;;;;;;;;;;;;;;;;;1047987;28;3025;-54
2023/01/01 00:11:54;;;;;;;;;;;;;;;;;;1047622;28;4113;-54
2023/01/01 00:12:24;;;;;;;;;;;;;;;;;;1043980;28;1788;-56
2023/01/01 00:12:55;;;;;;;;;;;;;;;;;;1044747;28;3961;-58
2023/01/01 00:13:25;;;;;;;;;;;;;;;;;;1040834;28;3360;-58
2023/01/01 00:13:56;;;;;;;;;;;;;;;;;;1043064;28;4043;-58
2023/01/01 00:14:27;;;;;;;;;;;;;;;;;;1044829;28;1797;-56
2023/01/01 00:14:57;;;;;;;;;;;;;;;;;;1044321;28;4053;-59
2023/01/01 00:15:27;;;;;;;;;;;;;;;;;;1050537;28;2646;-56
2023/01/01 00:16:12;;;;;;;;;;;;;;;;;;1049808;28;4453;-56
2023/01/01 00:16:49;;;;;;;;;;;;;;;;;;1047337;28;3896;-58
2023/01/01 00:17:19;;;;;;;;;;;;;;;;;;1047953;28;1671;-58
2023/01/01 00:17:50;;;;;;;;;;;;;;;;;;1049469;28;4611;-58
2023/01/01 00:18:20;;;;;;;;;;;;;;;;;;1048902;28;2810;-59
2023/01/01 00:18:50;;;;;;;;;;;;;;;;;;1051164;28;4418;-58
2023/01/01 00:19:21;;;;;;;;;;;;;;;;;;1047607;28;2688;-57
2023/01/01 00:19:51;;;;;;;;;;;;;;;;;;1048050;28;4086;-59
2023/01/01 00:20:21;;;;;;;;;;;;;;;;;;1050187;28;1890;-56
2023/01/01 00:21:00;;;;;;;;;;;;;;;;;;1049755;28;3891;-56
2023/01/01 00:21:30;;;;;;;;;;;;;;;;;;1048725;28;2826;-57
2023/01/01 00:22:00;;;;;;;;;;;;;;;;;;1047623;28;4043;-57
2023/01/01 00:22:30;;;;;;;;;;;;;;;;;;1048905;28;1653;-56
2023/01/01 00:23:01;;;;;;;;;;;;;;;;;;1047687;28;3881;-56
2023/01/01 00:23:32;;;;;;;;;;;;;;;;;;1048689;28;2447;-58
2023/01/01 00:24:02;;;;;;;;;;;;;;;;;;1049070;28;4103;-59
2023/01/01 00:24:33;;;;;;;;;;;;;;;;;;1049497;28;3800;-59
2023/01/01 00:25:04;;;;;;;;;;;;;;;;;;1048058;28;3830;-58
2023/01/01 00:25:34;;;;;;;;;;;;;;;;;;1050864;28;2684;-56
2023/01/01 00:26:11;;;;;;;;;;;;;;;;;;1044103;28;3746;-58
2023/01/01 00:26:41;;;;;;;;;;;;;;;;;;1042441;28;1835;-58
2023/01/01 00:27:12;;;;;;;;;;;;;;;;;;1039718;28;3804;-56
2023/01/01 00:27:42;;;;;;;;;;;;;;;;;;1043387;28;3973;-56
2023/01/01 00:28:12;;;;;;;;;;;;;;;;;;1046295;28;2606;-59
2023/01/01 00:28:43;;;;;;;;;;;;;;;;;;1049365;28;3970;-57
2023/01/01 00:29:13;;;;;;;;;;;;;;;;;;1047984;28;2426;-54
2023/01/01 00:29:44;;;;;;;;;;;;;;;;;;1050095;28;4116;-58
2023/01/01 00:30:14;;;;;;;;;;;;;;;;;;1048736;28;3083;-58
2023/01/01 00:30:44;;;;;;;;;;;;;;;;;;1047405;28;4556;-57
2023/01/01 00:31:16;;;;;;;;;;;;;;;;;;1049351;28;3442;-57
2023/01/01 00:31:46;;;;;;;;;;;;;;;;;;1048127;28;3812;-55
2023/01/01 00:32:16;;;;;;;;;;;;;;;;;;1049002;28;1582;-58
2023/01/01 00:32:47;;;;;;;;;;;;;;;;;;1048863;28;4048;-58
2023/01/01 00:33:17;;;;;;;;;;;;;;;;;;1045997;28;2920;-57
2023/01/01 00:33:52;;;;;;;;;;;;;;;;;;1047290;28;4229;-58
2023/01/01 00:34:22;;;;;;;;;;;;;;;;;;1043345;28;3026;-58
2023/01/01 00:34:52;;;;;;;;;;;;;;;;;;1046809;28;4024;-57
2023/01/01 00:35:23;;;;;;;;;;;;;;;;;;1045123;28;2390;-57
2023/01/01 00:35:53;;;;;;;;;;;;;;;;;;1044773;28;3829;-58
2023/01/01 00:36:25;;;;;;;;;;;;;;;;;;1047318;28;2712;-58
2023/01/01 00:36:56;;;;;;;;;;;;;;;;;;1049015;28;4252;-58
2023/01/01 00:37:27;;;;;;;;;;;;;;;;;;1050189;28;1376;-58
2023/01/01 00:37:57;;;;;;;;;;;;;;;;;;1048722;28;3883;-56
2023/01/01 00:38:27;;;;;;;;;;;;;;;;;;1048293;28;2967;-58
2023/01/01 00:38:57;;;;;;;;;;;;;;;;;;1048128;28;3916;-56
2023/01/01 00:39:28;;;;;;;;;;;;;;;;;;1048198;28;4040;-58
2023/01/01 00:39:58;;;;;;;;;;;;;;;;;;1048733;28;3793;-59
2023/01/01 00:40:28;;;;;;;;;;;;;;;;;;1050599;28;2673;-57
2023/01/01 00:40:59;;;;;;;;;;;;;;;;;;1046923;28;3791;-54
2023/01/01 00:41:29;;;;;;;;;;;;;;;;;;1047058;28;2775;-59
2023/01/01 00:42:00;;;;;;;;;;;;;;;;;;1047609;28;3791;-57
2023/01/01 00:42:30;;;;;;;;;;;;;;;;;;1048420;28;1715;-55
2023/01/01 00:43:00;;;;;;;;;;;;;;;;;;1047681;28;3841;-59
2023/01/01 00:43:31;;;;;;;;;;;;;;;;;;1049081;28;2720;-59
2023/01/01 00:44:01;;;;;;;;;;;;;;;;;;1049089;28;4400;-56
2023/01/01 00:44:31;;;;;;;;;;;;;;;;;;1048797;28;2709;-57
2023/01/01 00:45:01;;;;;;;;;;;;;;;;;;1048153;28;3912;-53
2023/01/01 00:45:32;;;;;;;;;;;;;;;;;;1050251;28;1868;-57
2023/01/01 00:46:03;;;;;;;;;;;;;;;;;;1047378;28;3953;-57
2023/01/01 00:46:33;;;;;;;;;;;;;;;;;;1048089;28;2606;-54
2023/01/01 00:47:04;;;;;;;;;;;;;;;;;;1048043;28;4016;-57
2023/01/01 00:47:34;;;;;;;;;;;;;;;;;;1044742;28;2399;-58
2023/01/01 00:48:04;;;;;;;;;;;;;;;;;;1039301;28;3865;-58
2023/01/01 00:48:35;;;;;;;;;;;;;;;;;;1040167;28;2728;-59
2023/01/01 00:49:05;;;;;;;;;;;;;;;;;;1038765;28;4361;-57
2023/01/01 00:49:36;;;;;;;;;;;;;;;;;;1043180;28;2967;-57
2023/01/01 00:50:06;;;;;;;;;;;;;;;;;;1047911;28;4344;-57
2023/01/01 00:50:36;;;;;;;;;;;;;;;;;;1050054;28;2497;-58
2023/01/01 00:51:07;;;;;;;;;;;;;;;;;;1048252;28;3960;-57
2023/01/01 00:51:37;;;;;;;;;;;;;;;;;;1048132;28;2864;-55
2023/01/01 00:52:07;;;;;;;;;;;;;;;;;;1047565;28;3962;-58
2023/01/01 00:52:38;;;;;;;;;;;;;;;;;;1047694;28;2590;-57
2023/01/01 00:53:08;;;;;;;;;;;;;;;;;;1047983;28;3914;-58
2023/01/01 00:53:38;;;;;;;;;;;;;;;;;;1048292;28;2712;-58
2023/01/01 00:54:08;;;;;;;;;;;;;;;;;;1048687;28;3902;-57
2023/01/01 00:54:39;;;;;;;;;;;;;;;;;;1043357;28;2626;-58
2023/01/01 00:55:09;;;;;;;;;;;;;;;;;;1046408;28;5247;-55
2023/01/01 00:55:40;;;;;;;;;;;;;;;;;;1045701;28;2791;-58
2023/01/01 00:56:10;;;;;;;;;;;;;;;;;;1045841;28;3976;-59
2023/01/01 00:56:40;;;;;;;;;;;;;;;;;;1051120;28;2742;-58
2023/01/01 00:57:11;;;;;;;;;;;;;;;;;;1047838;28;4351;-59
2023/01/01 00:57:41;;;;;;;;;;;;;;;;;;1051725;28;1593;-59
2023/01/01 00:58:11;;;;;;;;;;;;;;;;;;1046552;28;3869;-58
2023/01/01 00:58:41;;;;;;;;;;;;;;;;;;1049545;28;1792;-58
2023/01/01 00:59:12;;;;;;;;;;;;;;;;;;1047307;28;3740;-56
2023/01/01 00:59:42;;;;;;;;;;;;;;;;;;1047620;28;4041;-57
2023/01/01 01:00:12;;;;;;;;;;;;;;;;;;1048088;28;2591;-57
2023/01/01 01:00:43;;;;;;;;;;;;;;;;;;1051053;28;4308;-58
2023/01/01 01:01:13;;;;;;;;;;;;;;;;;;1048754;28;2328;-54
2023/01/01 01:01:43;;;;;;;;;;;;;;;;;;1046627;28;3998;-59
2023/01/01 01:02:14;;;;;;;;;;;;;;;;;;1049461;28;2645;-58
2023/01/01 01:02:44;;;;;;;;;;;;;;;;;;1048349;28;3904;-58
2023/01/01 01:03:26;;;;;;;;;;;;;;;;;;1050867;28;2832;-58
2023/01/01 01:03:57;;;;;;;;;;;;;;;;;;1047208;28;4040;-59
2023/01/01 01:04:27;;;;;;;;;;;;;;;;;;1050090;28;2441;-56
2023/01/01 01:04:57;;;;;;;;;;;;;;;;;;1049827;28;4003;-58
2023/01/01 01:05:27;;;;;;;;;;;;;;;;;;1049976;28;2276;-56
2023/01/01 01:06:01;;;;;;;;;;;;;;;;;;1049961;28;3865;-57
2023/01/01 01:06:31;;;;;;;;;;;;;;;;;;1050829;28;2254;-56
2023/01/01 01:07:01;;;;;;;;;;;;;;;;;;1048149;28;3968;-57
2023/01/01 01:07:33;;;;;;;;;;;;;;;;;;1048783;28;2436;-56
2023/01/01 01:08:03;;;;;;;;;;;;;;;;;;1049690;28;4039;-57
2023/01/01 01:08:34;;;;;;;;;;;;;;;;;;1048922;28;2814;-58
2023/01/01 01:09:11;;;;;;;;;;;;;;;;;;1048225;28;4264;-58
2023/01/01 01:09:42;;;;;;;;;;;;;;;;;;1049546;28;4470;-56
2023/01/01 01:10:12;;;;;;;;;;;;;;;;;;1048293;28;2186;-59
2023/01/01 01:10:42;;;;;;;;;;;;;;;;;;1048033;28;3965;-58
2023/01/01 01:11:15;;;;;;;;;;;;;;;;;;1050399;28;2124;-58
2023/01/01 01:11:45;;;;;;;;;;;;;;;;;;1049648;28;4069;-57
2023/01/01 01:12:15;;;;;;;;;;;;;;;;;;1049978;28;2279;-58
2023/01/01 01:12:45;;;;;;;;;;;;;;;;;;1050392;28;3816;-58
2023/01/01 01:13:16;;;;;;;;;;;;;;;;;;1047584;28;3716;-58
2023/01/01 01:13:47;;;;;;;;;;;;;;;;;;1047736;28;3975;-58
2023/01/01 01:14:18;;;;;;;;;;;;;;;;;;1046791;28;2744;-59
2023/01/01 01:14:48;;;;;;;;;;;;;;;;;;1049712;28;4311;-58
2023/01/01 01:15:19;;;;;;;;;;;;;;;;;;1051828;28;1688;-56
2023/01/01 01:16:02;;;;;;;;;;;;;;;;;;1039763;28;3974;-54
2023/01/01 01:16:39;;;;;;;;;;;;;;;;;;1042845;28;2247;-58
2023/01/01 01:17:10;;;;;;;;;;;;;;;;;;1044033;28;3827;-57
2023/01/01 01:17:40;;;;;;;;;;;;;;;;;;1043462;28;1731;-57
2023/01/01 01:18:10;;;;;;;;;;;;;;;;;;1045404;28;3958;-58
2023/01/01 01:18:41;;;;;;;;;;;;;;;;;;1044875;28;2454;-55
2023/01/01 01:19:14;;;;;;;;;;;;;;;;;;1049597;28;3901;-57
2023/01/01 01:19:45;;;;;;;;;;;;;;;;;;1046998;28;4481;-56
2023/01/01 01:20:15;;;;;;;;;;;;;;;;;;1050567;28;2618;-59
2023/01/01 01:20:52;;;;;;;;;;;;;;;;;;1048420;28;4054;-56
2023/01/01 01:21:22;;;;;;;;;;;;;;;;;;1045965;28;1823;-56
2023/01/01 01:21:53;;;;;;;;;;;;;;;;;;1044082;28;3975;-57
2023/01/01 01:22:23;;;;;;;;;;;;;;;;;;1043681;28;2044;-58
2023/01/01 01:22:53;;;;;;;;;;;;;;;;;;1043168;28;3983;-59
2023/01/01 01:23:23;;;;;;;;;;;;;;;;;;1046367;28;2685;-59
2023/01/01 01:23:56;;;;;;;;;;;;;;;;;;1042637;28;4060;-56
2023/01/01 01:24:26;;;;;;;;;;;;;;;;;;1045552;28;2016;-56
2023/01/01 01:24:56;;;;;;;;;;;;;;;;;;1043167;28;4145;-57
2023/01/01 01:25:26;;;;;;;;;;;;;;;;;;1047042;28;2136;-58
2023/01/01 01:26:06;;;;;;;;;;;;;;;;;;1045587;28;4043;-59
2023/01/01 01:26:37;;;;;;;;;;;;;;;;;;1046710;28;2356;-58
2023/01/01 01:27:07;;;;;;;;;;;;;;;;;;1047166;28;3893;-59
2023/01/01 01:27:37;;;;;;;;;;;;;;;;;;1050539;28;1841;-54
2023/01/01 01:28:08;;;;;;;;;;;;;;;;;;1043867;28;4031;-58
2023/01/01 01:28:38;;;;;;;;;;;;;;;;;;1048547;28;2680;-56
2023/01/01 01:29:09;;;;;;;;;;;;;;;;;;1044822;28;4094;-56
2023/01/01 01:29:39;;;;;;;;;;;;;;;;;;1045004;28;3056;-58
2023/01/01 01:30:09;;;;;;;;;;;;;;;;;;1043185;28;3720;-58
2023/01/01 01:30:40;;;;;;;;;;;;;;;;;;1043883;28;1978;-57
2023/01/01 01:31:11;;;;;;;;;;;;;;;;;;1043978;28;4371;-58
2023/01/01 01:31:41;;;;;;;;;;;;;;;;;;1047626;28;1377;-58
2023/01/01 01:32:11;;;;;;;;;;;;;;;;;;1044594;28;3803;-59
2023/01/01 01:32:41;;;;;;;;;;;;;;;;;;1044006;28;2721;-59
2023/01/01 01:33:12;;;;;;;;;;;;;;;;;;1044387;28;3967;-57
2023/01/01 01:33:42;;;;;;;;;;;;;;;;;;1042788;28;3899;-57
2023/01/01 01:34:14;;;;;;;;;;;;;;;;;;1044766;28;1444;-56
2023/01/01 01:34:45;;;;;;;;;;;;;;;;;;1046047;28;3812;-58
2023/01/01 01:35:15;;;;;;;;;;;;;;;;;;1044943;28;2948;-58
2023/01/01 01:35:49;;;;;;;;;;;;;;;;;;1043283;28;3977;-58
2023/01/01 01:36:20;;;;;;;;;;;;;;;;;;1043879;28;2636;-57
2023/01/01 01:36:52;;;;;;;;;;;;;;;;;;1045715;28;4263;-57
2023/01/01 01:37:22;;;;;;;;;;;;;;;;;;1046266;28;1981;-58
2023/01/01 01:37:52;;;;;;;;;;;;;;;;;;1044040;28;4063;-57
2023/01/01 01:38:22;;;;;;;;;;;;;;;;;;1046246;28;2626;-53
2023/01/01 01:38:53;;;;;;;;;;;;;;;;;;1044377;28;4393;-58
2023/01/01 01:39:23;;;;;;;;;;;;;;;;;;1043705;28;2982;-59
2023/01/01 01:39:54;;;;;;;;;;;;;;;;;;1044441;28;3996;-57
2023/01/01 01:40:24;;;;;;;;;;;;;;;;;;1045549;28;2088;-57
2023/01/01 01:40:55;;;;;;;;;;;;;;;;;;1046567;28;4175;-59
2023/01/01 01:41:26;;;;;;;;;;;;;;;;;;1043711;28;2814;-58
2023/01/01 01:41:56;;;;;;;;;;;;;;;;;;1044825;28;4064;-57
2023/01/01 01:42:27;;;;;;;;;;;;;;;;;;1045284;28;1675;-59
2023/01/01 01:42:57;;;;;;;;;;;;;;;;;;1042763;28;4058;-58
2023/01/01 01:43:33;;;;;;;;;;;;;;;;;;1047106;28;1700;-58
2023/01/01 01:44:23;;;;;;;;;;;;;;;;;;1044077;28;3892;-55
2023/01/01 01:44:56;;;;;;;;;;;;;;;;;;1040681;28;4122;-51
2023/01/01 01:45:26;;;;;;;;;;;;;;;;;;1042594;28;1907;-55
2023/01/01 01:46:04;;;;;;;;;;;;;;;;;;1043844;28;4106;-56
2023/01/01 01:46:42;;;;;;;;;;;;;;;;;;1046006;28;2058;-58
2023/01/01 01:47:31;;;;;;;;;;;;;;;;;;1042981;28;3619;-55
2023/01/01 01:48:02;;;;;;;;;;;;;;;;;;1044486;28;3788;-59
2023/01/01 01:48:36;;;;;;;;;;;;;;;;;;1044826;28;2554;-58
2023/01/01 01:49:14;;;;;;;;;;;;;;;;;;1045162;28;4010;-57
2023/01/01 01:49:45;;;;;;;;;;;;;;;;;;1044797;28;5144;-58
2023/01/01 01:50:21;;;;;;;;;;;;;;;;;;1045542;28;2190;-58
2023/01/01 01:50:52;;;;;;;;;;;;;;;;;;1042095;28;3996;-57
2023/01/01 01:51:26;;;;;;;;;;;;;;;;;;1043022;28;2934;-56
2023/01/01 01:51:58;;;;;;;;;;;;;;;;;;1044062;28;3988;-58
2023/01/01 01:52:29;;;;;;;;;;;;;;;;;;1044308;28;3708;-57
2023/01/01 01:53:11;;;;;;;;;;;;;;;;;;1043381;28;3973;-58
2023/01/01 01:53:44;;;;;;;;;;;;;;;;;;1043802;28;2849;-58
2023/01/01 01:54:17;;;;;;;;;;;;;;;;;;1043316;28;3693;-58
2023/01/01 01:54:48;;;;;;;;;;;;;;;;;;1046741;28;4588;-58
2023/01/01 01:55:18;;;;;;;;;;;;;;;;;;1046006;28;1986;-58
2023/01/01 01:56:03;;;;;;;;;;;;;;;;;;1041299;28;3948;-55
2023/01/01 01:56:38;;;;;;;;;;;;;;;;;;1044244;28;2609;-57
2023/01/01 01:57:09;;;;;;;;;;;;;;;;;;1045507;28;4227;-58
2023/01/01 01:57:40;;;;;;;;;;;;;;;;;;1045124;28;2942;-58
2023/01/01 01:58:12;;;;;;;;;;;;;;;;;;1043918;28;3985;-56
2023/01/01 01:58:42;;;;;;;;;;;;;;;;;;1043689;28;3816;-58
2023/01/01 01:59:13;;;;;;;;;;;;;;;;;;1042362;28;2875;-57
2023/01/01 01:59:46;;;;;;;;;;;;;;;;;;1043029;28;4101;-58
2023/01/01 02:00:16;;;;;;;;;;;;;;;;;;1043723;28;3032;-59
2023/01/01 02:00:47;;;;;;;;;;;;;;;;;;1043265;28;4061;-55
2023/01/01 02:01:17;;;;;;;;;;;;;;;;;;1046946;28;2672;-54
2023/01/01 02:01:47;;;;;;;;;;;;;;;;;;1043769;28;4006;-57
2023/01/01 02:02:30;;;;;;;;;;;;;;;;;;1045470;28;2772;-57
2023/01/01 02:03:03;;;;;;;;;;;;;;;;;;1044049;28;4383;-57
2023/01/01 02:03:40;;;;;;;;;;;;;;;;;;1044572;28;1677;-58
2023/01/01 02:04:11;;;;;;;;;;;;;;;;;;1044047;28;3908;-57
2023/01/01 02:04:41;;;;;;;;;;;;;;;;;;1044471;28;2684;-58
2023/01/01 02:05:12;;;;;;;;;;;;;;;;;;1043454;28;4314;-58
2023/01/01 02:05:43;;;;;;;;;;;;;;;;;;1042958;28;4032;-56
2023/01/01 02:06:14;;;;;;;;;;;;;;;;;;1043767;28;2100;-58
2023/01/01 02:06:44;;;;;;;;;;;;;;;;;;1045827;28;3778;-59
2023/01/01 02:07:15;;;;;;;;;;;;;;;;;;1043635;28;3190;-58
2023/01/01 02:07:46;;;;;;;;;;;;;;;;;;1044641;28;4239;-59
2023/01/01 02:08:17;;;;;;;;;;;;;;;;;;1044598;28;2655;-58
2023/01/01 02:08:48;;;;;;;;;;;;;;;;;;1045112;28;3948;-57
2023/01/01 02:09:19;;;;;;;;;;;;;;;;;;1042029;28;2274;-58
2023/01/01 02:09:49;;;;;;;;;;;;;;;;;;1047125;28;4054;-58
2023/01/01 02:10:20;;;;;;;;;;;;;;;;;;1045524;28;2341;-58
2023/01/01 02:10:51;;;;;;;;;;;;;;;;;;1044366;28;4027;-58
2023/01/01 02:11:21;;;;;;;;;;;;;;;;;;1046742;28;1789;-58
2023/01/01 02:11:51;;;;;;;;;;;;;;;;;;1043088;28;4180;-55
2023/01/01 02:12:22;;;;;;;;;;;;;;;;;;1046754;28;1665;-59
2023/01/01 02:12:52;;;;;;;;;;;;;;;;;;1044746;28;4470;-59
2023/01/01 02:13:23;;;;;;;;;;;;;;;;;;1044056;28;1751;-57
2023/01/01 02:13:54;;;;;;;;;;;;;;;;;;1043150;28;3840;-58
2023/01/01 02:14:25;;;;;;;;;;;;;;;;;;1043470;28;3077;-59
2023/01/01 02:14:55;;;;;;;;;;;;;;;;;;1045184;28;3961;-58
2023/01/01 02:15:28;;;;;;;;;;;;;;;;;;1045865;28;2077;-58
2023/01/01 02:16:16;;;;;;;;;;;;;;;;;;1043615;28;4527;-56
2023/01/01 02:16:53;;;;;;;;;;;;;;;;;;1039134;28;4063;-59
2023/01/01 02:17:37;;;;;;;;;;;;;;;;;;1041184;28;3137;-58
2023/01/01 02:18:13;;;;;;;;;;;;;;;;;;1044040;28;3839;-58
2023/01/01 02:18:49;;;;;;;;;;;;;;;;;;1044269;28;3760;-56
2023/01/01 02:19:35;;;;;;;;;;;;;;;;;;1040057;28;2698;-59
2023/01/01 02:20:20;;;;;;;;;;;;;;;;;;1039536;28;3951;-58
2023/01/01 02:20:58;;;;;;;;;;;;;;;;;;1041263;28;3781;-57
2023/01/01 02:21:30;;;;;;;;;;;;;;;;;;1041899;28;2785;-56
2023/01/01 02:22:21;;;;;;;;;;;;;;;;;;1040844;28;4099;-58
2023/01/01 02:22:58;;;;;;;;;;;;;;;;;;1041960;28;4417;-58
2023/01/01 02:23:41;;;;;;;;;;;;;;;;;;1043709;28;2213;-58
2023/01/01 02:24:19;;;;;;;;;;;;;;;;;;1040917;28;4101;-56
2023/01/01 02:24:56;;;;;;;;;;;;;;;;;;1045210;28;4443;-58
2023/01/01 02:25:45;;;;;;;;;;;;;;;;;;1043660;28;1984;-57
2023/01/01 02:26:37;;;;;;;;;;;;;;;;;;1039905;28;3733;-56
2023/01/01 02:27:16;;;;;;;;;;;;;;;;;;1042830;28;3741;-57
2023/01/01 02:27:46;;;;;;;;;;;;;;;;;;1042343;28;3812;-57
2023/01/01 02:28:22;;;;;;;;;;;;;;;;;;1040669;28;2764;-57
2023/01/01 02:28:53;;;;;;;;;;;;;;;;;;1040414;28;4074;-58
2023/01/01 02:29:29;;;;;;;;;;;;;;;;;;1041489;28;2819;-58
2023/01/01 02:30:01;;;;;;;;;;;;;;;;;;1042087;28;3855;-56
2023/01/01 02:30:32;;;;;;;;;;;;;;;;;;1043298;28;2503;-57
2023/01/01 02:31:03;;;;;;;;;;;;;;;;;;1039706;28;4029;-58
2023/01/01 02:31:35;;;;;;;;;;;;;;;;;;1042635;28;3340;-58
2023/01/01 02:32:07;;;;;;;;;;;;;;;;;;1043144;28;3736;-58
2023/01/01 02:32:40;;;;;;;;;;;;;;;;;;1043677;28;1667;-57
2023/01/01 02:33:15;;;;;;;;;;;;;;;;;;1041619;28;4080;-59
2023/01/01 02:33:46;;;;;;;;;;;;;;;;;;1039988;28;4169;-58
2023/01/01 02:34:18;;;;;;;;;;;;;;;;;;1040154;28;2323;-58
2023/01/01 02:34:52;;;;;;;;;;;;;;;;;;1040230;28;4072;-53
2023/01/01 02:35:34;;;;;;;;;;;;;;;;;;1040442;28;2371;-58
2023/01/01 02:36:05;;;;;;;;;;;;;;;;;;1036652;28;3985;-57
2023/01/01 02:36:39;;;;;;;;;;;;;;;;;;1039765;28;2857;-59
2023/01/01 02:37:11;;;;;;;;;;;;;;;;;;1041740;28;3757;-58
2023/01/01 02:37:41;;;;;;;;;;;;;;;;;;1041003;28;2820;-57
2023/01/01 02:38:15;;;;;;;;;;;;;;;;;;1041755;28;3805;-58
2023/01/01 02:38:48;;;;;;;;;;;;;;;;;;1040248;28;4163;-59
2023/01/01 02:39:20;;;;;;;;;;;;;;;;;;1041218;28;3030;-56
2023/01/01 02:39:57;;;;;;;;;;;;;;;;;;1041329;28;3983;-57
2023/01/01 02:40:28;;;;;;;;;;;;;;;;;;1039483;28;3402;-58
2023/01/01 02:40:59;;;;;;;;;;;;;;;;;;1040212;28;4062;-57
2023/01/01 02:41:32;;;;;;;;;;;;;;;;;;1043054;28;1649;-58
2023/01/01 02:42:04;;;;;;;;;;;;;;;;;;1040600;28;3916;-59
2023/01/01 02:42:34;;;;;;;;;;;;;;;;;;1040132;28;2759;-59
2023/01/01 02:43:04;;;;;;;;;;;;;;;;;;1042499;28;4376;-57
2023/01/01 02:43:35;;;;;;;;;;;;;;;;;;1043909;28;2039;-58
2023/01/01 02:44:05;;;;;;;;;;;;;;;;;;1042518;28;3817;-58
2023/01/01 02:44:38;;;;;;;;;;;;;;;;;;1039366;28;2758;-56
2023/01/01 02:45:09;;;;;;;;;;;;;;;;;;1041452;28;3991;-58
2023/01/01 02:45:40;;;;;;;;;;;;;;;;;;1040861;28;2949;-59
2023/01/01 02:46:11;;;;;;;;;;;;;;;;;;1040559;28;3802;-56
2023/01/01 02:46:41;;;;;;;;;;;;;;;;;;1040805;28;3360;-58
2023/01/01 02:47:16;;;;;;;;;;;;;;;;;;1042198;28;3853;-58
2023/01/01 02:47:47;;;;;;;;;;;;;;;;;;1038304;28;3790;-58
2023/01/01 02:48:35;;;;;;;;;;;;;;;;;;1041615;28;3024;-59
2023/01/01 02:49:05;;;;;;;;;;;;;;;;;;1039152;28;3934;-55
2023/01/01 02:49:37;;;;;;;;;;;;;;;;;;1039044;28;3222;-57
2023/01/01 02:50:12;;;;;;;;;;;;;;;;;;1041634;28;4039;-55
2023/01/01 02:50:43;;;;;;;;;;;;;;;;;;1041128;28;3909;-57
2023/01/01 02:51:16;;;;;;;;;;;;;;;;;;1040545;28;2057;-57
2023/01/01 02:52:13;;;;;;;;;;;;;;;;;;1040835;28;4556;-58
2023/01/01 02:52:55;;;;;;;;;;;;;;;;;;1037872;28;4262;-57
2023/01/01 02:53:29;;;;;;;;;;;;;;;;;;1041192;28;3197;-59
2023/01/01 02:54:10;;;;;;;;;;;;;;;;;;1038252;28;3788;-58
2023/01/01 02:54:44;;;;;;;;;;;;;;;;;;1042053;28;1678;-58
2023/01/01 02:55:25;;;;;;;;;;;;;;;;;;1040008;28;3937;-56
2023/01/01 02:56:00;;;;;;;;;;;;;;;;;;1041556;28;3978;-58
2023/01/01 02:56:46;;;;;;;;;;;;;;;;;;1041263;28;2880;-56
2023/01/01 02:57:26;;;;;;;;;;;;;;;;;;1040506;28;3773;-58
2023/01/01 03:00:26;;;;;;;;;;;;;;;;;;1044352;28;3777;-58
2023/01/01 03:01:01;;;;;;;;;;;;;;;;;;1040575;28;4042;-56
2023/01/01 03:01:47;;;;;;;;;;;;;;;;;;1040077;28;2776;-58
2023/01/01 03:02:32;;;;;;;;;;;;;;;;;;1040319;28;3864;-59
2023/01/01 03:03:12;;;;;;;;;;;;;;;;;;1041030;28;3906;-57
2023/01/01 03:03:49;;;;;;;;;;;;;;;;;;1039414;28;4073;-57
2023/01/01 03:04:41;;;;;;;;;;;;;;;;;;1042918;28;3015;-57
2023/01/01 03:05:12;;;;;;;;;;;;;;;;;;1040487;28;3706;-55
2023/01/01 03:06:51;;;;;;;;;;;;;;;;;;1038483;28;4555;-57
2023/01/01 03:07:33;;;;;;;;;;;;;;;;;;1042927;28;2380;-56
2023/01/01 03:08:07;;;;;;;;;;;;;;;;;;1039557;28;4019;-58
2023/01/01 03:08:45;;;;;;;;;;;;;;;;;;1041004;28;2097;-55
2023/01/01 03:09:28;;;;;;;;;;;;;;;;;;1040420;28;3725;-55
2023/01/01 03:10:03;;;;;;;;;;;;;;;;;;1041618;28;3794;-56
2023/01/01 03:11:00;;;;;;;;;;;;;;;;;;1041936;28;2747;-58
2023/01/01 03:11:38;;;;;;;;;;;;;;;;;;1040558;28;3874;-59
2023/01/01 03:12:13;;;;;;;;;;;;;;;;;;1042550;28;3996;-58
2023/01/01 03:12:46;;;;;;;;;;;;;;;;;;1042060;28;4127;-55
2023/01/01 03:13:23;;;;;;;;;;;;;;;;;;1042203;28;2715;-58
2023/01/01 03:14:00;;;;;;;;;;;;;;;;;;1040877;28;4186;-58
2023/01/01 03:14:45;;;;;;;;;;;;;;;;;;1038711;28;2780;-59
2023/01/01 03:15:37;;;;;;;;;;;;;;;;;;1040382;28;3682;-56
2023/01/01 03:16:38;;;;;;;;;;;;;;;;;;1041926;28;4514;-58
2023/01/01 03:17:18;;;;;;;;;;;;;;;;;;1046425;28;3966;-56
2023/01/01 03:17:48;;;;;;;;;;;;;;;;;;1038795;28;4396;-53
2023/01/01 03:19:09;;;;;;;;;;;;;;;;;;1041830;28;1806;-55
2023/01/01 03:19:40;;;;;;;;;;;;;;;;;;1033688;28;4004;-56
2023/01/01 03:20:15;;;;;;;;;;;;;;;;;;1032087;28;3742;-58
2023/01/01 03:20:47;;;;;;;;;;;;;;;;;;1032524;28;3933;-58
2023/01/01 03:21:21;;;;;;;;;;;;;;;;;;1033641;28;2765;-57
2023/01/01 03:22:00;;;;;;;;;;;;;;;;;;1032576;28;3974;-57
2023/01/01 03:22:32;;;;;;;;;;;;;;;;;;1033497;28;1766;-58
2023/01/01 03:23:06;;;;;;;;;;;;;;;;;;1032320;28;3972;-59
2023/01/01 03:23:39;;;;;;;;;;;;;;;;;;1032783;28;2268;-59
2023/01/01 03:24:12;;;;;;;;;;;;;;;;;;1031663;28;4231;-57
2023/01/01 03:24:54;;;;;;;;;;;;;;;;;;1033843;28;3942;-57
2023/01/01 03:25:27;;;;;;;;;;;;;;;;;;1042605;28;2240;-56
2023/01/01 03:25:59;;;;;;;;;;;;;;;;;;1043384;28;3932;-58
2023/01/01 03:26:33;;;;;;;;;;;;;;;;;;1043513;28;2291;-57
2023/01/01 03:27:12;;;;;;;;;;;;;;;;;;1044916;28;3781;-59
2023/01/01 03:27:45;;;;;;;;;;;;;;;;;;1045477;28;3971;-58
2023/01/01 03:28:23;;;;;;;;;;;;;;;;;;1048086;28;2925;-57
2023/01/01 03:28:56;;;;;;;;;;;;;;;;;;1043887;28;4142;-58
2023/01/01 03:29:28;;;;;;;;;;;;;;;;;;1043286;28;2775;-59
2023/01/01 03:29:59;;;;;;;;;;;;;;;;;;1045454;28;4393;-56
2023/01/01 03:30:31;;;;;;;;;;;;;;;;;;1044979;28;2546;-56
2023/01/01 03:31:01;;;;;;;;;;;;;;;;;;1045812;28;4085;-59
2023/01/01 03:31:32;;;;;;;;;;;;;;;;;;1046068;28;2450;-54
2023/01/01 03:32:04;;;;;;;;;;;;;;;;;;1047548;28;3956;-58
2023/01/01 03:33:31;;;;;;;;;;;;;;;;;;1047213;28;3965;-59
2023/01/01 03:34:04;;;;;;;;;;;;;;;;;;1043262;28;4012;-58
2023/01/01 03:34:44;;;;;;;;;;;;;;;;;;1049205;28;2489;-58
2023/01/01 03:35:15;;;;;;;;;;;;;;;;;;1050053;28;5189;-56
2023/01/01 03:35:48;;;;;;;;;;;;;;;;;;1049110;28;4423;-57
2023/01/01 03:36:20;;;;;;;;;;;;;;;;;;1049607;28;2789;-56
2023/01/01 03:36:52;;;;;;;;;;;;;;;;;;1048290;28;3875;-56
2023/01/01 03:37:25;;;;;;;;;;;;;;;;;;1048162;28;1708;-56
2023/01/01 03:37:56;;;;;;;;;;;;;;;;;;1048032;28;3872;-56
2023/01/01 03:38:27;;;;;;;;;;;;;;;;;;1048252;28;1690;-57
2023/01/01 03:38:59;;;;;;;;;;;;;;;;;;1045028;28;4075;-57
2023/01/01 03:39:37;;;;;;;;;;;;;;;;;;1043426;28;3006;-57
2023/01/01 03:40:08;;;;;;;;;;;;;;;;;;1043699;28;3994;-56
2023/01/01 03:40:38;;;;;;;;;;;;;;;;;;1042459;28;2736;-58
2023/01/01 03:41:20;;;;;;;;;;;;;;;;;;1046177;28;3885;-56
2023/01/01 03:41:55;;;;;;;;;;;;;;;;;;1044880;28;3827;-56
2023/01/01 03:42:36;;;;;;;;;;;;;;;;;;1045654;28;2064;-58
2023/01/01 03:43:18;;;;;;;;;;;;;;;;;;1048836;28;4235;-57
2023/01/01 03:43:54;;;;;;;;;;;;;;;;;;1042724;28;4070;-57
2023/01/01 03:44:45;;;;;;;;;;;;;;;;;;1044575;28;2090;-58
2023/01/01 03:45:18;;;;;;;;;;;;;;;;;;1046618;28;3861;-56
2023/01/01 03:45:49;;;;;;;;;;;;;;;;;;1048321;28;4440;-58
2023/01/01 03:46:22;;;;;;;;;;;;;;;;;;1049083;28;2124;-57
2023/01/01 03:46:53;;;;;;;;;;;;;;;;;;1047460;28;3996;-59
2023/01/01 03:47:23;;;;;;;;;;;;;;;;;;1049796;28;1919;-59
2023/01/01 03:47:54;;;;;;;;;;;;;;;;;;1047126;28;3988;-57
2023/01/01 03:48:24;;;;;;;;;;;;;;;;;;1043917;28;2579;-58
2023/01/01 03:48:55;;;;;;;;;;;;;;;;;;1045947;28;4093;-57
2023/01/01 03:49:25;;;;;;;;;;;;;;;;;;1042023;28;2563;-57
2023/01/01 03:49:56;;;;;;;;;;;;;;;;;;1043406;28;4009;-58
2023/01/01 03:50:38;;;;;;;;;;;;;;;;;;1050966;28;2068;-58
2023/01/01 03:51:13;;;;;;;;;;;;;;;;;;1050029;28;3734;-57
2023/01/01 03:51:53;;;;;;;;;;;;;;;;;;1049705;28;4045;-57
2023/01/01 03:52:29;;;;;;;;;;;;;;;;;;1048600;28;2562;-59
2023/01/01 03:53:06;;;;;;;;;;;;;;;;;;1049042;28;3862;-58
2023/01/01 03:53:41;;;;;;;;;;;;;;;;;;1051957;28;1670;-59
2023/01/01 03:54:30;;;;;;;;;;;;;;;;;;1047962;28;3956;-59
2023/01/01 03:55:04;;;;;;;;;;;;;;;;;;1046838;28;3904;-54
2023/01/01 03:55:37;;;;;;;;;;;;;;;;;;1047978;28;2485;-57
2023/01/01 03:56:24;;;;;;;;;;;;;;;;;;1044571;28;4338;-56
2023/01/01 03:57:00;;;;;;;;;;;;;;;;;;1043923;28;4077;-57
2023/01/01 03:57:37;;;;;;;;;;;;;;;;;;1044105;28;2971;-58
2023/01/01 03:58:23;;;;;;;;;;;;;;;;;;1048553;28;4358;-57
2023/01/01 03:58:58;;;;;;;;;;;;;;;;;;1047958;28;4261;-56